Search for airport 
image banner adimage banner adimage banner ad
image banner ad

PS13 - Boeing Helicopters Center 3 South

Located in Ridley Park, United States

ICAO - PS13, IATA -

Data provided by Airmate  

General information

Coordinates: N39°51'33" W75°19'11"
Elevation is 10 feet MSL.
Magnetic variation is -11° East
View others Airports in Pennsylvania

Operational data

Special qualification required
Current time UTC:
Current local time:
Weather at : KPHL - Philadelphia Intl ( 7 km )
METAR: KPHL 091254Z VRB03KT 10SM BKN130 BKN250 10/03 A3012 RMK AO2 SLP199 T01000033
TAF: KPHL 091120Z 0912/1018 VRB04KT P6SM BKN200 FM092200 15006KT P6SM VCSH OVC025 FM100400 12005KT P6SM VCSH BKN025 WS020/21040KT FM100700 24005KT P6SM BKN035 WS020/23055KT FM101300 31010KT P6SM SCT030
View NOTAMs / SUP AIP / TFR affecting this airport [VIEW]
Communications frequencies: [VIEW]

Runways:

Airport contact information

Address: Ridley Park United States

Satellite view of PS13